createdAt,value
2018-09-06T00:00:30.519Z,65.50
2018-09-06T00:02:58.798Z,65.10
2018-09-06T00:05:27.110Z,64.23
2018-09-06T00:07:56.754Z,63.03
2018-09-06T00:10:25.126Z,61.83
2018-09-06T00:12:53.449Z,76.10
2018-09-06T00:15:21.705Z,72.60
2018-09-06T00:17:50.088Z,70.90
2018-09-06T00:20:18.416Z,81.10
2018-09-06T00:22:46.756Z,77.70
2018-09-06T00:25:15.044Z,85.97
2018-09-06T00:27:43.334Z,78.13
2018-09-06T00:30:11.680Z,72.20
2018-09-06T00:32:40.089Z,76.90
2018-09-06T00:35:08.411Z,75.90
2018-09-06T00:37:36.905Z,74.40
2018-09-06T00:40:05.508Z,74.90
2018-09-06T00:42:33.808Z,83.07
2018-09-06T00:45:02.427Z,79.60
2018-09-06T00:47:30.744Z,85.30
2018-09-06T00:49:59.123Z,75.27
2018-09-06T00:52:27.472Z,70.40
2018-09-06T00:54:55.814Z,73.03
2018-09-06T00:57:24.128Z,71.60
2018-09-06T00:59:52.472Z,70.27
2018-09-06T01:02:20.830Z,70.13
2018-09-06T01:04:49.207Z,66.53
2018-09-06T01:07:17.576Z,66.17
2018-09-06T01:09:45.915Z,60.77
2018-09-06T01:12:15.164Z,61.57
2018-09-06T01:14:43.984Z,67.33
2018-09-06T01:17:12.459Z,62.27
2018-09-06T01:19:40.887Z,62.60
2018-09-06T01:22:09.279Z,64.33
2018-09-06T01:24:37.888Z,69.47
2018-09-06T01:27:06.309Z,67.57
2018-09-06T01:29:34.627Z,61.80
2018-09-06T01:32:02.907Z,67.27
2018-09-06T01:34:31.383Z,64.37
2018-09-06T01:36:59.744Z,60.87
2018-09-06T01:39:28.023Z,68.27
2018-09-06T01:41:56.320Z,63.13
2018-09-06T01:44:24.612Z,61.33
2018-09-06T01:46:52.944Z,69.90
2018-09-06T01:49:21.211Z,67.70
2018-09-06T01:51:49.504Z,70.10
2018-09-06T01:54:17.811Z,72.23
2018-09-06T01:56:46.119Z,72.67
2018-09-06T01:59:14.675Z,65.23
2018-09-06T02:01:43.051Z,71.03
2018-09-06T02:04:11.534Z,72.67
2018-09-06T02:06:39.896Z,67.20
2018-09-06T02:09:09.214Z,67.70
2018-09-06T02:11:38.207Z,79.77
2018-09-06T02:14:06.685Z,75.60
2018-09-06T02:16:35.603Z,75.63
2018-09-06T02:19:04.525Z,83.93
2018-09-06T02:21:32.915Z,85.37
2018-09-06T02:24:01.919Z,74.27
2018-09-06T02:26:30.475Z,82.13
2018-09-06T02:28:59.061Z,80.13
2018-09-06T02:31:27.726Z,78.53
2018-09-06T02:33:56.449Z,83.43
2018-09-06T02:36:24.936Z,88.63
2018-09-06T02:38:53.384Z,90.03
2018-09-06T02:41:21.682Z,80.43
2018-09-06T02:43:49.971Z,88.00
2018-09-06T02:46:18.250Z,87.77
2018-09-06T02:48:46.645Z,99.90
2018-09-06T02:51:20.028Z,95.80
2018-09-06T02:53:48.359Z,95.63
2018-09-06T02:56:17.375Z,96.70
2018-09-06T02:58:45.683Z,93.37
2018-09-06T03:01:13.981Z,102.27
2018-09-06T03:03:42.246Z,98.60
2018-09-06T03:06:10.629Z,105.67
2018-09-06T03:08:38.900Z,105.10
2018-09-06T03:11:16.899Z,93.37
2018-09-06T03:13:45.786Z,94.83
2018-09-06T03:16:14.916Z,93.47
2018-09-06T03:18:43.801Z,100.97
2018-09-06T03:21:12.682Z,98.37
2018-09-06T03:23:41.629Z,102.50
2018-09-06T03:26:15.410Z,104.77
2018-09-06T03:28:44.279Z,100.47
2018-09-06T03:31:13.756Z,107.93
2018-09-06T03:33:44.497Z,108.33
2018-09-06T03:36:13.262Z,110.30
2018-09-06T03:38:42.362Z,108.53
2018-09-06T03:41:12.081Z,96.73
2018-09-06T03:43:40.820Z,105.73
2018-09-06T03:46:09.733Z,98.20
2018-09-06T03:48:38.019Z,94.90
2018-09-06T03:51:06.670Z,106.30
2018-09-06T03:53:35.303Z,106.27
2018-09-06T03:56:03.576Z,108.83
2018-09-06T03:58:31.931Z,122.13
2018-09-06T04:01:00.850Z,114.77
2018-09-06T04:03:30.152Z,99.33
2018-09-06T04:06:01.284Z,104.43
2018-09-06T04:08:29.787Z,111.20
2018-09-06T04:10:58.624Z,106.37
2018-09-06T04:13:27.258Z,104.53
2018-09-06T04:15:55.528Z,102.37
2018-09-06T04:18:23.848Z,108.10
2018-09-06T04:20:52.092Z,102.00
2018-09-06T04:23:20.488Z,96.70
2018-09-06T04:25:48.881Z,110.03
2018-09-06T04:28:20.256Z,106.23
2018-09-06T04:30:48.723Z,100.10
2018-09-06T04:33:17.855Z,113.73
2018-09-06T04:35:47.782Z,102.33
2018-09-06T04:38:16.555Z,108.10
2018-09-06T04:40:45.191Z,99.90
2018-09-06T04:43:16.929Z,115.47
2018-09-06T04:45:46.036Z,99.70
2018-09-06T04:48:14.911Z,105.97
2018-09-06T04:50:43.904Z,104.53
2018-09-06T04:53:13.276Z,114.10
2018-09-06T04:55:42.109Z,108.13
2018-09-06T04:58:14.485Z,112.37
2018-09-06T05:00:48.817Z,105.67
2018-09-06T05:03:22.850Z,112.63
2018-09-06T05:05:59.281Z,110.70
2018-09-06T05:08:30.868Z,116.10
2018-09-06T05:11:03.310Z,104.00
2018-09-06T05:13:34.167Z,80.50
2018-09-06T05:16:04.875Z,67.40
2018-09-06T05:18:35.392Z,66.13
2018-09-06T05:21:08.576Z,57.17
2018-09-06T05:23:40.998Z,52.83
2018-09-06T05:26:11.631Z,49.17
2018-09-06T05:28:43.820Z,40.40
2018-09-06T05:31:14.741Z,42.90
2018-09-06T05:33:47.885Z,34.93
2018-09-06T05:36:20.269Z,37.77
2018-09-06T05:38:49.441Z,35.60
2018-09-06T05:41:18.321Z,36.90
2018-09-06T05:43:47.093Z,41.27
2018-09-06T05:46:15.706Z,34.97
2018-09-06T05:48:44.920Z,45.57
2018-09-06T05:51:16.414Z,41.03
2018-09-06T05:53:46.559Z,50.20
2018-09-06T05:56:16.110Z,49.33
2018-09-06T05:58:44.935Z,41.77
2018-09-06T06:01:13.712Z,46.17
2018-09-06T06:03:46.045Z,47.70
2018-09-06T06:06:16.391Z,49.87
2018-09-06T06:08:47.725Z,61.33
2018-09-06T06:11:17.467Z,58.80
2018-09-06T06:13:49.065Z,55.83
2018-09-06T06:16:19.102Z,65.80
2018-09-06T06:18:48.325Z,62.17
2018-09-06T06:21:21.927Z,60.20
2018-09-06T06:23:54.992Z,59.77
2018-09-06T06:26:28.594Z,63.53
2018-09-06T06:29:02.567Z,66.93
2018-09-06T06:31:36.855Z,70.37
2018-09-06T06:34:09.508Z,71.67
2018-09-06T06:36:44.085Z,68.27
2018-09-06T06:39:16.554Z,70.70
2018-09-06T06:41:45.643Z,73.40
2018-09-06T06:44:18.344Z,72.23
2018-09-06T06:46:47.482Z,76.07
2018-09-06T06:49:16.689Z,71.83
2018-09-06T06:51:49.420Z,80.80
2018-09-06T06:54:22.558Z,71.23
2018-09-06T06:56:51.846Z,68.73
2018-09-06T06:59:21.403Z,69.50
2018-09-06T07:01:51.604Z,72.97
2018-09-06T07:04:38.211Z,72.20
2018-09-06T07:31:26.806Z,76.43
2018-09-06T07:33:58.988Z,67.93
2018-09-06T07:36:27.486Z,70.67
2018-09-06T07:38:56.052Z,73.37
2018-09-06T07:41:24.482Z,69.77
2018-09-06T07:43:53.104Z,74.30
2018-09-06T07:46:21.739Z,71.67
2018-09-06T07:48:50.338Z,71.93
2018-09-06T07:51:19.047Z,65.93
2018-09-06T07:53:48.026Z,62.20
2018-09-06T07:56:16.922Z,64.07
2018-09-06T07:58:47.223Z,58.00
2018-09-06T08:01:17.216Z,52.23
2018-09-06T08:03:46.158Z,55.50
2018-09-06T08:06:14.870Z,52.17
2018-09-06T08:08:43.508Z,55.27
2018-09-06T08:11:12.375Z,46.57
2018-09-06T08:39:44.000Z,55.30
2018-09-06T08:42:12.279Z,50.30
2018-09-06T08:44:40.628Z,46.80
2018-09-06T08:47:09.067Z,54.60
2018-09-06T08:49:37.389Z,43.20
2018-09-06T08:52:05.701Z,49.67
2018-09-06T08:54:33.936Z,55.83
2018-09-06T08:57:02.182Z,51.17
2018-09-06T08:59:30.540Z,45.57
2018-09-06T09:01:58.873Z,52.60
2018-09-06T09:04:27.139Z,42.67
2018-09-06T09:06:55.426Z,38.80
2018-09-06T09:09:23.763Z,34.57
2018-09-06T09:11:52.039Z,42.23
2018-09-06T09:14:20.311Z,34.10
2018-09-06T09:16:48.603Z,40.77
2018-09-06T09:19:16.900Z,36.97
2018-09-06T09:21:45.255Z,41.70
2018-09-06T09:24:13.534Z,36.87
2018-09-06T09:26:41.851Z,38.43
2018-09-06T09:29:10.147Z,33.63
2018-09-06T09:31:38.466Z,32.97
2018-09-06T09:34:06.939Z,35.80
2018-09-06T09:36:35.254Z,35.80
2018-09-06T09:39:04.969Z,31.10
2018-09-06T09:41:33.292Z,32.57
2018-09-06T09:44:01.615Z,37.13
2018-09-06T09:48:57.619Z,26.87
2018-09-06T09:51:26.010Z,28.10
2018-09-06T09:53:54.412Z,30.00
2018-09-06T09:56:23.928Z,26.17
2018-09-06T09:58:52.764Z,40.63
2018-09-06T10:01:21.216Z,27.23
2018-09-06T10:03:54.969Z,28.00
2018-09-06T10:06:29.220Z,32.83
2018-09-06T10:09:03.047Z,37.83
2018-09-06T10:11:31.362Z,43.13
2018-09-06T10:13:59.654Z,43.60
2018-09-06T10:16:27.934Z,37.40
2018-09-06T10:18:56.341Z,41.27
2018-09-06T10:21:24.715Z,42.00
2018-09-06T10:23:53.780Z,39.97
2018-09-06T10:26:22.305Z,42.87
2018-09-06T10:28:50.689Z,45.90
2018-09-06T10:31:19.052Z,49.80
2018-09-06T10:33:47.402Z,44.50
2018-09-06T10:36:15.800Z,54.03
2018-09-06T10:38:44.028Z,51.27
2018-09-06T10:41:12.285Z,54.23
2018-09-06T10:43:40.600Z,54.60
2018-09-06T10:46:08.906Z,57.80
2018-09-06T10:48:37.158Z,53.80
2018-09-06T10:51:05.475Z,51.17
2018-09-06T10:53:33.831Z,54.60
2018-09-06T10:56:02.108Z,58.83
2018-09-06T10:58:30.567Z,55.90
2018-09-06T11:01:04.399Z,66.60
2018-09-06T11:03:32.691Z,66.60
2018-09-06T11:06:01.052Z,63.63
2018-09-06T11:08:29.519Z,60.40
2018-09-06T11:10:57.772Z,65.80
2018-09-06T11:13:26.044Z,57.30
2018-09-06T11:15:57.160Z,52.30
2018-09-06T11:18:25.679Z,51.10
2018-09-06T11:20:53.997Z,56.70
2018-09-06T11:23:22.281Z,52.53
2018-09-06T11:25:50.531Z,53.97
2018-09-06T11:28:18.851Z,82.50
2018-09-06T11:30:47.185Z,69.50
2018-09-06T11:33:15.504Z,77.30
2018-09-06T11:35:43.786Z,66.17
2018-09-06T11:38:12.099Z,68.80
2018-09-06T11:40:40.395Z,61.77
2018-09-06T11:43:08.685Z,62.80
2018-09-06T11:45:37.015Z,56.70
2018-09-06T11:48:05.407Z,69.07
2018-09-06T11:50:33.752Z,88.40
2018-09-06T11:53:02.093Z,79.97
2018-09-06T11:55:30.439Z,86.50
2018-09-06T11:57:58.804Z,88.83
2018-09-06T12:00:27.097Z,88.00
2018-09-06T12:02:55.713Z,79.07
2018-09-06T12:05:24.163Z,75.73
2018-09-06T12:07:52.460Z,73.17
2018-09-06T12:10:20.731Z,71.40
2018-09-06T12:12:49.067Z,78.20
2018-09-06T12:15:17.343Z,73.90
2018-09-06T12:17:45.712Z,79.97
2018-09-06T12:20:13.960Z,72.10
2018-09-06T12:22:42.432Z,68.83
2018-09-06T12:25:10.877Z,59.97
2018-09-06T12:27:39.112Z,66.63
2018-09-06T12:30:07.464Z,55.87
2018-09-06T12:32:35.784Z,60.20
2018-09-06T12:35:04.082Z,60.63
2018-09-06T12:37:32.351Z,57.63
2018-09-06T12:40:01.714Z,56.80
2018-09-06T12:42:31.477Z,51.07
2018-09-06T12:44:59.738Z,59.23
2018-09-06T12:47:28.047Z,62.53
2018-09-06T12:49:56.430Z,56.77
2018-09-06T12:52:24.769Z,67.20
2018-09-06T12:54:54.728Z,56.57
2018-09-06T12:57:23.111Z,59.13
2018-09-06T12:59:51.448Z,64.47
2018-09-06T13:02:20.205Z,64.03
2018-09-06T13:04:48.482Z,65.70
2018-09-06T13:07:16.809Z,64.17
2018-09-06T13:09:45.143Z,61.57
2018-09-06T13:12:13.374Z,62.60
2018-09-06T13:14:42.415Z,66.27
2018-09-06T13:17:10.762Z,66.00
2018-09-06T13:19:39.105Z,72.27
2018-09-06T13:22:07.418Z,75.27
2018-09-06T13:24:35.675Z,75.00
2018-09-06T13:27:04.037Z,70.67
2018-09-06T13:29:32.484Z,72.37
2018-09-06T13:32:00.840Z,69.60
2018-09-06T13:34:29.120Z,77.93
2018-09-06T13:36:57.547Z,72.77
2018-09-06T13:39:25.846Z,79.57
2018-09-06T13:41:54.116Z,69.57
2018-09-06T13:44:24.606Z,64.47
2018-09-06T13:46:52.935Z,65.23
2018-09-06T13:49:21.221Z,75.43
2018-09-06T13:51:49.603Z,63.20
2018-09-06T13:54:19.276Z,72.53
2018-09-06T13:56:47.565Z,74.73
2018-09-06T13:59:15.924Z,72.73
2018-09-06T14:01:44.428Z,72.97
2018-09-06T14:04:12.775Z,77.13
2018-09-06T14:06:42.178Z,83.03
2018-09-06T14:09:10.712Z,78.03
2018-09-06T14:11:39.081Z,72.60
2018-09-06T14:14:07.357Z,77.33
2018-09-06T14:16:39.256Z,90.20
2018-09-06T14:19:07.716Z,73.87
2018-09-06T14:21:36.098Z,76.60
2018-09-06T14:24:04.477Z,71.77
2018-09-06T14:26:32.783Z,76.80
2018-09-06T14:29:01.095Z,71.30
2018-09-06T14:31:29.487Z,74.53
2018-09-06T14:33:57.759Z,75.87
2018-09-06T14:36:26.039Z,79.83
2018-09-06T14:39:01.652Z,74.50
2018-09-06T14:41:31.736Z,66.33
2018-09-06T14:44:00.775Z,68.90
2018-09-06T14:46:29.378Z,71.60
2018-09-06T14:48:59.510Z,75.07
2018-09-06T14:51:31.133Z,70.67
2018-09-06T14:53:59.873Z,79.53
2018-09-06T14:56:28.435Z,65.40
2018-09-06T14:58:57.275Z,67.37
2018-09-06T15:01:25.958Z,71.77
2018-09-06T15:03:54.412Z,75.80
2018-09-06T15:06:23.640Z,73.43
2018-09-06T15:22:28.429Z,81.43
2018-09-06T15:24:57.005Z,79.43
2018-09-06T15:27:27.635Z,81.20
2018-09-06T15:29:56.449Z,77.83
2018-09-06T15:32:25.165Z,80.90
2018-09-06T15:34:57.636Z,78.50
2018-09-06T15:37:27.997Z,77.70
2018-09-06T15:39:56.603Z,86.97
2018-09-06T15:42:25.091Z,81.87
2018-09-06T15:44:53.648Z,96.33
2018-09-06T15:47:21.996Z,89.40
2018-09-06T15:49:50.902Z,104.07
2018-09-06T15:52:19.234Z,93.10
2018-09-06T15:54:47.933Z,101.83
2018-09-06T15:57:16.260Z,93.97
2018-09-06T15:59:44.693Z,95.53
2018-09-06T16:02:13.147Z,101.60
2018-09-06T16:04:41.710Z,108.00
2018-09-06T16:07:10.229Z,101.13
2018-09-06T16:09:41.020Z,100.23
2018-09-06T16:12:11.427Z,92.07
2018-09-06T16:14:46.107Z,98.67
2018-09-06T16:17:18.427Z,83.73
2018-09-06T16:19:49.309Z,88.03
2018-09-06T16:22:20.331Z,89.97
2018-09-06T16:24:53.018Z,101.20
2018-09-06T16:27:23.622Z,92.07
2018-09-06T16:29:53.190Z,92.30
2018-09-06T16:32:26.955Z,96.17
2018-09-06T16:35:45.933Z,94.27
2018-09-06T17:16:29.021Z,76.50
2018-09-06T17:18:59.567Z,79.80
2018-09-06T17:21:32.643Z,84.80
2018-09-06T17:24:08.359Z,72.10
2018-09-06T17:26:38.540Z,63.40
2018-09-06T17:29:10.831Z,72.40
2018-09-06T17:31:40.792Z,65.03
2018-09-06T17:34:16.176Z,71.63
2018-09-06T17:36:54.515Z,62.50
2018-09-06T17:39:27.002Z,66.10
2018-09-06T19:53:22.548Z,27.73
2018-09-06T19:55:52.505Z,31.40
2018-09-06T19:58:20.905Z,30.83
2018-09-06T20:00:49.282Z,32.37
2018-09-06T20:03:17.580Z,28.87
2018-09-06T20:05:45.959Z,28.73
2018-09-06T20:08:14.312Z,26.60
2018-09-06T20:10:42.646Z,26.57
2018-09-06T20:13:11.055Z,26.80
2018-09-06T20:15:39.423Z,24.93
2018-09-06T20:18:07.919Z,28.77
2018-09-06T20:20:36.416Z,27.40
2018-09-06T20:23:06.951Z,24.43
2018-09-06T20:25:35.254Z,27.57
2018-09-06T20:28:03.922Z,26.43
2018-09-06T20:30:32.105Z,23.97
2018-09-06T20:33:00.778Z,26.27
2018-09-06T20:35:29.185Z,27.00
2018-09-06T20:38:01.246Z,25.10
2018-09-06T20:40:29.565Z,23.03
2018-09-06T20:42:58.025Z,21.47
2018-09-06T20:45:26.278Z,21.00
2018-09-06T20:47:55.470Z,24.70
2018-09-06T20:50:23.831Z,22.13
2018-09-06T20:52:53.074Z,21.50
2018-09-06T20:55:21.851Z,24.70
2018-09-06T20:57:51.330Z,23.50
2018-09-06T21:00:19.948Z,23.97
2018-09-06T21:02:48.546Z,25.07
2018-09-06T21:05:17.153Z,21.67
2018-09-06T21:07:46.103Z,26.53
2018-09-06T21:10:15.019Z,23.33
2018-09-06T21:12:43.297Z,23.33
2018-09-06T21:18:09.938Z,27.03
2018-09-06T21:20:39.328Z,27.70
2018-09-06T21:23:09.529Z,20.07
2018-09-06T21:25:50.842Z,26.27
2018-09-06T21:28:20.838Z,24.73
2018-09-06T21:31:02.082Z,26.33
2018-09-06T22:29:49.276Z,28.80
2018-09-06T22:32:38.159Z,21.70
2018-09-06T22:35:38.289Z,27.13
2018-09-06T22:38:13.897Z,27.30
2018-09-06T22:43:39.927Z,26.27
2018-09-06T22:49:01.787Z,24.77
2018-09-06T22:51:31.284Z,20.33
2018-09-06T22:54:02.414Z,25.83
2018-09-06T22:56:30.920Z,25.30
2018-09-06T22:58:59.693Z,27.30
2018-09-06T23:01:28.394Z,29.20
2018-09-06T23:03:57.585Z,32.60
2018-09-06T23:06:26.122Z,27.10
2018-09-06T23:08:54.817Z,27.50
2018-09-06T23:11:23.764Z,27.47
2018-09-06T23:13:52.671Z,27.70
2018-09-06T23:16:22.108Z,26.50
2018-09-06T23:18:50.820Z,27.30
2018-09-06T23:21:19.115Z,28.13
2018-09-06T23:23:47.379Z,27.00
2018-09-06T23:26:15.738Z,27.73
2018-09-06T23:28:44.200Z,28.37
2018-09-06T23:31:13.441Z,25.73
2018-09-06T23:33:42.446Z,20.73
2018-09-06T23:36:11.824Z,26.07
2018-09-06T23:38:40.291Z,25.80
2018-09-06T23:41:08.663Z,27.20
2018-09-06T23:43:37.869Z,30.10
2018-09-06T23:46:07.297Z,24.80
2018-09-06T23:48:35.774Z,26.60
2018-09-06T23:51:04.369Z,26.00
2018-09-06T23:53:32.922Z,26.00
2018-09-06T23:56:02.376Z,31.13
2018-09-06T23:58:31.420Z,24.10
